Wharton, Texas
Current Conditions -  °F | °C
As of 5:15 AM on Wednesday 26 Nov 2014 (Local Time) from KELA Reporting Station
Clear Clear  
Wind Chill: 41°   Ceiling: Unl
Heat Index: 45°   Visibility: 10mi
Dew Point: 39°   Wind: 7mph
Humidity: 80%   Direction: 240°WSW
Pressure: 30.21"   Gusts: NA
Location:  29.32°N, 96.1°W
Report Text: KELA 261115Z AUTO 24006KT 10SM CLR 07/04 A3021 RMK AO2 T00710038
Loading
Personal Weather Stations






























Interactive Weather Map New forecast layout! Learn more

10-Day Weather Forecast

Advertisements
Track Severe Weather on mobile